Accueil
METAR-TAF:

METAR-TAF

Aéroports :

Sabadell, Espagne

latitude: 41-31N, longitude: 002-06E, altitude: 250 m

Observation

Le bulletin a été fait il y a 23 minutes, à 05:00 UTC
Vent 4 kt de ouest
Température 0°C
Humidité 86%
Pression 1029 hPa
Visibilité 10 km ou plus

METAR: LELL 160500Z AUTO 28004KT 9999 NCD M00/M02 Q1029

Heure: 06:23 (05:23 UTC)

Prévision

Le bulletin a été fait il y a 3 heures et 23 minutes, à 02:00 UTC
Prévision valable du 16 à 03 UTC au 17 à 03 UTC
Vent 3 kt de direction variable
Visibilité 10 km ou plus
Quelques nuages à une hauteur de 3000 ft
Temporairement
du 16 à 12 UTC au 16 à 16 UTC
Vent 8 kt de est/sud-est

TAF: LELL 160200Z 1603/1703 VRB03KT 9999 FEW030 TX18/1613Z TN01/1607Z TEMPO 1612/1616 12008KT

Observations et prévisions météorologiques de plus de 4000 aéroports (messages METAR et TAF).

Les stations disponibles sont représentées par des disques jaunes et rouges sur la carte.

Passer la souris dessus pour voir le nom de la station.

Cliquer dessus pour voir les observations et prévisions météorologiques.

Pour changer de carte: cliquez sur les boutons verts avec une croix noire pour zoomer, sur le bouton vert avec un tiret pour effectuer un zoom arrière, ou sur les flèches vertes pour les cartes adjacentes.


METAR-TAF: